Bookmark and Share
Track history (hours):
 

Hav Tind

Last reported at 2014-Apr-16 12:29 UTC. Time now 2014-Apr-18 03:07 UTC.
Position N 62°08' W 006°35'.

Length 60 m; draft 4 m.

Type: Cargo ship. MMSI: 231565000.

NotesDate/timePositionNaut miles runAvg speedWind from/ knotsBaromVisibWave heightAir tempDewpointWater temp
2014-Apr-16 12:29N 62°08' W 006°35'8 8.4
2014-Apr-16 11:33N 62°01' W 006°43'2 1.9
2014-Apr-16 10:31N 61°59' W 006°45'0 0.4
2014-Apr-16 09:34N 61°59' W 006°45'9 8.7
2014-Apr-16 08:33N 62°07' W 006°36'  
2014-Apr-11 20:29N 62°14' W 006°45'2 1.9
2014-Apr-11 19:32N 62°14' W 006°48'0 0.0
2014-Apr-11 18:26N 62°14' W 006°48'2 2.1
2014-Apr-11 17:33N 62°16' W 006°45'9 1.5
2014-Apr-11 11:28N 62°08' W 006°35'3 3.3
2014-Apr-11 10:31N 62°08' W 006°41'0 0.0
2014-Apr-11 09:31N 62°08' W 006°41'4 3.7
2014-Apr-11 08:27N 62°12' W 006°37'6 6.3
2014-Apr-11 07:31N 62°14' W 006°48'0 0.0
2014-Apr-11 06:28N 62°14' W 006°48'0 0.0
2014-Apr-11 05:28N 62°14' W 006°48'0 0.0
2014-Apr-11 04:31N 62°14' W 006°48'0 0.0
2014-Apr-11 03:31N 62°14' W 006°48'0 0.0
2014-Apr-11 02:28N 62°14' W 006°48'0 0.0
2014-Apr-11 01:31N 62°14' W 006°48'0 0.0
2014-Apr-11 00:31N 62°14' W 006°48'0 0.0
2014-Apr-10 23:25N 62°14' W 006°48'0 0.0
2014-Apr-10 22:28N 62°14' W 006°48'0 0.0
2014-Apr-10 21:28N 62°14' W 006°48'0 0.0
2014-Apr-10 20:28N 62°14' W 006°48'0 0.0
2014-Apr-10 19:28N 62°14' W 006°48'0 0.0
2014-Apr-10 18:28N 62°14' W 006°48'11 1.2
2014-Apr-10 09:28N 62°11' W 006°27'3 1.1
2014-Apr-10 07:05N 62°10' W 006°32'810.1
2014-Apr-10 06:19N 62°14' W 006°47'1 1.1
2014-Apr-10 05:33N 62°14' W 006°48'0 0.0
2014-Apr-10 04:30N 62°14' W 006°48'0 0.0
2014-Apr-10 03:33N 62°14' W 006°48'0 0.0
2014-Apr-10 02:33N 62°14' W 006°48'0 0.0
2014-Apr-10 01:33N 62°14' W 006°48'0 0.0
2014-Apr-10 00:33N 62°14' W 006°48'0 0.0
2014-Apr-09 23:33N 62°14' W 006°48'0 0.0
2014-Apr-09 22:33N 62°14' W 006°48'0 0.0
2014-Apr-09 21:33N 62°14' W 006°48'0 0.0
2014-Apr-09 20:33N 62°14' W 006°48'0 0.0
2014-Apr-09 19:33N 62°14' W 006°48'0 0.0
2014-Apr-09 18:33N 62°14' W 006°48'0 0.0
2014-Apr-09 17:33N 62°14' W 006°48'0 0.0
2014-Apr-09 16:33N 62°14' W 006°48'0 0.0
2014-Apr-09 15:30N 62°14' W 006°48'0 0.0
2014-Apr-09 14:33N 62°14' W 006°48'0 0.0
2014-Apr-09 13:33N 62°14' W 006°48'0 0.1
2014-Apr-09 12:29N 62°14' W 006°48'9 8.2
2014-Apr-09 11:26N 62°08' W 006°34'6 7.1
2014-Apr-09 10:33N 62°05' W 006°45'5 4.9
2014-Apr-09 09:31N 62°06' W 006°56'7 7.4
2014-Apr-09 08:33N 62°03' W 006°42'11 7.5
2014-Apr-09 07:08N 62°14' W 006°46'1 2.0
2014-Apr-09 06:33N 62°14' W 006°48'0 0.0
2014-Apr-09 05:33N 62°14' W 006°48'0 0.0
2014-Apr-09 04:33N 62°14' W 006°48'0 0.0
2014-Apr-09 03:33N 62°14' W 006°48'0 0.0
2014-Apr-09 02:33N 62°14' W 006°48'0 0.0
2014-Apr-09 01:33N 62°14' W 006°48'0 0.0
2014-Apr-08 23:09N 62°14' W 006°48'0 0.0
2014-Apr-08 22:33N 62°14' W 006°48'0 0.0
2014-Apr-08 21:30N 62°14' W 006°48'0 0.0
2014-Apr-08 20:33N 62°14' W 006°48'0 0.0
2014-Apr-08 19:33N 62°14' W 006°48'0 0.0
2014-Apr-08 18:33N 62°14' W 006°48'0 0.0
2014-Apr-08 17:33N 62°14' W 006°48'0 0.0
2014-Apr-08 16:33N 62°14' W 006°48'0 0.0
2014-Apr-08 15:33N 62°14' W 006°48'2 2.2
2014-Apr-08 14:33N 62°14' W 006°44'8 1.4
2014-Apr-08 08:22N 62°11' W 006°27'9 8.5
2014-Apr-08 07:20N 62°14' W 006°45'2 2.2
2014-Apr-08 06:31N 62°14' W 006°48'0 0.0
2014-Apr-08 05:31N 62°14' W 006°48'0 0.0
2014-Apr-08 04:31N 62°14' W 006°48'0 0.0
2014-Apr-08 03:31N 62°14' W 006°48'0 0.0
2014-Apr-08 02:31N 62°14' W 006°48'0 0.0
2014-Apr-08 01:31N 62°14' W 006°48'0 0.0
2014-Apr-08 00:31N 62°14' W 006°48'0 0.0
2014-Apr-07 23:31N 62°14' W 006°48'0 0.0
2014-Apr-07 22:31N 62°14' W 006°48'0 0.0
2014-Apr-07 21:31N 62°14' W 006°48'0 0.0
2014-Apr-07 20:31N 62°14' W 006°48'0 0.0
2014-Apr-07 19:25N 62°14' W 006°48'0 0.0
2014-Apr-07 17:31N 62°14' W 006°48'0 0.0
2014-Apr-07 16:31N 62°14' W 006°48'0 0.0
2014-Apr-07 15:31N 62°14' W 006°48'0 0.0
2014-Apr-07 14:31N 62°14' W 006°48'0 0.0
2014-Apr-07 13:31N 62°14' W 006°48'0 0.0
2014-Apr-07 12:31N 62°14' W 006°48'0 0.0
2014-Apr-07 11:31N 62°14' W 006°48'0 0.0
2014-Apr-07 10:31N 62°14' W 006°48'0 0.0
2014-Apr-07 09:31N 62°14' W 006°48'0 0.0
2014-Apr-07 08:31N 62°14' W 006°48'0 0.0
2014-Apr-07 07:31N 62°14' W 006°48'0 0.0
2014-Apr-07 06:31N 62°14' W 006°48'0 0.0
2014-Apr-07 05:31N 62°14' W 006°48'0 0.0
2014-Apr-07 04:31N 62°14' W 006°48'0 0.0
2014-Apr-07 03:31N 62°14' W 006°48'0 0.0
2014-Apr-07 02:31N 62°14' W 006°48'0 0.0
2014-Apr-07 01:31N 62°14' W 006°48'0 0.0
2014-Apr-07 00:31N 62°14' W 006°48'0 0.0
2014-Apr-06 23:31N 62°14' W 006°48'0 0.0
2014-Apr-06 22:31N 62°14' W 006°48'0 0.0
2014-Apr-06 21:31N 62°14' W 006°48'0 0.0
2014-Apr-06 20:31N 62°14' W 006°48'0 0.0
2014-Apr-06 19:31N 62°14' W 006°48'0 0.0
2014-Apr-06 18:31N 62°14' W 006°48'0 0.0
2014-Apr-06 17:31N 62°14' W 006°48'0 0.0
2014-Apr-06 16:31N 62°14' W 006°48'0 0.0
2014-Apr-06 15:31N 62°14' W 006°48'0 0.0
2014-Apr-06 14:31N 62°14' W 006°48'0 0.0
2014-Apr-06 13:31N 62°14' W 006°48'0 0.0
2014-Apr-06 12:31N 62°14' W 006°48'  

Dump ship's entire track history

sailing weather and tide predictions

Hav Tind — OZ2071 — position and weather